DBIER EDDW-EDDH
Flight info
| Callsign | DBIER |
|---|---|
| Flight time | 0h 16m |
| Altitude | 9000 |
| Route | WSN1M/09 WSN Y850 MUBZI M105 RIBSO RIBSO7A |
| Aircraft | C750/M-SBDE3FGHRWXY/S |
Departure
| Time | 2026-04-30 17:41 |
|---|---|
| Airport | Bremen Airport (EDDW) |
Arrival
| Time | 2026-04-30 17:58 |
|---|---|
| Airport | Hamburg Helmut Schmidt Airport (EDDH) |
| Time | Latitude | Longitude | Altitude | Speed | Heading |
|---|---|---|---|---|---|
| 2026-04-30 17:39 | 53.04659 | 8.77532 | 17 ft | 15 kts | 88° |
| 2026-04-30 17:41 | 53.05340 | 8.95416 | 3548 ft | 263 kts | 65° |
| 2026-04-30 17:42 | 53.08050 | 8.99288 | 6263 ft | 262 kts | 28° |
| 2026-04-30 17:42 | 53.13643 | 8.99029 | 9819 ft | 290 kts | 339° |
| 2026-04-30 17:43 | 53.17151 | 8.95248 | 11397 ft | 320 kts | 329° |
| 2026-04-30 17:44 | 53.23939 | 8.89489 | 11411 ft | 403 kts | 343° |
| 2026-04-30 17:44 | 53.32223 | 8.87302 | 11403 ft | 403 kts | 3° |
| 2026-04-30 17:46 | 53.44457 | 8.95754 | 11368 ft | 340 kts | 55° |
| 2026-04-30 17:47 | 53.45022 | 9.10809 | 11433 ft | 332 kts | 95° |
| 2026-04-30 17:48 | 53.43482 | 9.25693 | 8512 ft | 308 kts | 103° |
| 2026-04-30 17:48 | 53.41802 | 9.34648 | 7850 ft | 237 kts | 108° |
| 2026-04-30 17:49 | 53.39733 | 9.44792 | 5893 ft | 223 kts | 95° |
| 2026-04-30 17:50 | 53.41965 | 9.54528 | 5041 ft | 226 kts | 68° |
| 2026-04-30 17:51 | 53.44383 | 9.61267 | 4513 ft | 227 kts | 50° |
| 2026-04-30 17:52 | 53.47423 | 9.67324 | 3932 ft | 226 kts | 52° |
| 2026-04-30 17:53 | 53.52105 | 9.76759 | 2985 ft | 181 kts | 52° |
| 2026-04-30 17:54 | 53.55297 | 9.83204 | 2114 ft | 179 kts | 52° |
| 2026-04-30 17:55 | 53.58227 | 9.89116 | 1201 ft | 141 kts | 52° |
| 2026-04-30 17:56 | 53.60347 | 9.93424 | 575 ft | 118 kts | 50° |
| 2026-04-30 17:57 | 53.61928 | 9.96577 | 107 ft | 117 kts | 51° |
| 2026-04-30 17:58 | 53.62963 | 9.98672 | 41 ft | 42 kts | 50° |
| 2026-04-30 17:59 | 53.63079 | 9.99211 | 43 ft | 0 kts | 121° |
| 2026-04-30 18:00 | 53.62971 | 9.99122 | 43 ft | 10 kts | 230° |
| 2026-04-30 18:00 | 53.62842 | 9.98859 | 43 ft | 10 kts | 230° |
| 2026-04-30 18:01 | 53.62775 | 9.98811 | 43 ft | 5 kts | 152° |
| 2026-04-30 18:02 | 53.62730 | 9.98895 | 43 ft | 3 kts | 60° |
| 2026-04-30 18:02 | 53.62736 | 9.98889 | 43 ft | 0 kts | 242° |
| 2026-04-30 18:03 | 53.62739 | 9.98898 | 43 ft | 0 kts | 242° |